sensor_id;sensor_type;location;lat;lon;timestamp;pressure;altitude;pressure_sealevel;temperature;humidity
46394;BME280;32099;53.588;10.176;2022-11-20T00:00:46;100836.88;;;2.76;75.96
46394;BME280;32099;53.588;10.176;2022-11-20T00:03:11;100847.38;;;2.79;75.93
46394;BME280;32099;53.588;10.176;2022-11-20T00:05:37;100843.13;;;2.76;75.11
46394;BME280;32099;53.588;10.176;2022-11-20T00:08:03;100846.34;;;2.70;75.24
46394;BME280;32099;53.588;10.176;2022-11-20T00:10:28;100840.22;;;2.68;75.90
46394;BME280;32099;53.588;10.176;2022-11-20T00:12:54;100845.22;;;2.73;76.00
46394;BME280;32099;53.588;10.176;2022-11-20T00:15:19;100837.72;;;2.76;76.69
46394;BME280;32099;53.588;10.176;2022-11-20T00:17:44;100838.56;;;2.77;76.45
46394;BME280;32099;53.588;10.176;2022-11-20T00:20:10;100843.94;;;2.77;76.50
46394;BME280;32099;53.588;10.176;2022-11-20T00:22:35;100830.38;;;2.78;76.39
46394;BME280;32099;53.588;10.176;2022-11-20T00:25:01;100841.53;;;2.74;76.30
46394;BME280;32099;53.588;10.176;2022-11-20T00:27:26;100837.59;;;2.78;75.90
46394;BME280;32099;53.588;10.176;2022-11-20T00:29:51;100831.34;;;2.77;76.18
46394;BME280;32099;53.588;10.176;2022-11-20T00:32:17;100837.72;;;2.76;76.60
46394;BME280;32099;53.588;10.176;2022-11-20T00:34:42;100836.75;;;2.77;75.98
46394;BME280;32099;53.588;10.176;2022-11-20T00:37:07;100839.19;;;2.81;75.98
46394;BME280;32099;53.588;10.176;2022-11-20T00:39:33;100837.09;;;2.84;76.15
46394;BME280;32099;53.588;10.176;2022-11-20T00:41:58;100830.97;;;2.82;75.73
46394;BME280;32099;53.588;10.176;2022-11-20T00:44:23;100829.41;;;2.80;76.35
46394;BME280;32099;53.588;10.176;2022-11-20T00:46:48;100828.91;;;2.74;75.64
46394;BME280;32099;53.588;10.176;2022-11-20T00:49:14;100833.47;;;2.74;76.73
46394;BME280;32099;53.588;10.176;2022-11-20T00:51:39;100827.50;;;2.70;75.92
46394;BME280;32099;53.588;10.176;2022-11-20T00:54:04;100838.50;;;2.67;75.94
46394;BME280;32099;53.588;10.176;2022-11-20T00:56:29;100828.56;;;2.68;76.64
46394;BME280;32099;53.588;10.176;2022-11-20T00:58:55;100834.09;;;2.66;76.36
46394;BME280;32099;53.588;10.176;2022-11-20T01:01:22;100832.53;;;2.64;76.55
46394;BME280;32099;53.588;10.176;2022-11-20T01:03:49;100832.25;;;2.67;77.24
46394;BME280;32099;53.588;10.176;2022-11-20T01:06:19;100826.03;;;2.66;76.62
46394;BME280;32099;53.588;10.176;2022-11-20T01:08:46;100824.47;;;2.64;76.93
46394;BME280;32099;53.588;10.176;2022-11-20T01:11:14;100823.34;;;2.66;77.05
46394;BME280;32099;53.588;10.176;2022-11-20T01:13:42;100817.81;;;2.68;76.93
46394;BME280;32099;53.588;10.176;2022-11-20T01:18:41;100816.72;;;2.70;77.13
46394;BME280;32099;53.588;10.176;2022-11-20T01:21:10;100808.50;;;2.72;76.55
46394;BME280;32099;53.588;10.176;2022-11-20T01:23:39;100816.25;;;2.65;76.83
46394;BME280;32099;53.588;10.176;2022-11-20T01:26:07;100811.69;;;2.66;77.32
46394;BME280;32099;53.588;10.176;2022-11-20T01:28:34;100803.75;;;2.64;76.42
46394;BME280;32099;53.588;10.176;2022-11-20T01:30:59;100809.72;;;2.68;77.20
46394;BME280;32099;53.588;10.176;2022-11-20T01:33:25;100803.94;;;2.72;77.19
46394;BME280;32099;53.588;10.176;2022-11-20T01:35:51;100800.88;;;2.77;77.43
46394;BME280;32099;53.588;10.176;2022-11-20T01:38:17;100796.59;;;2.74;77.25
46394;BME280;32099;53.588;10.176;2022-11-20T01:40:42;100790.47;;;2.72;76.68
46394;BME280;32099;53.588;10.176;2022-11-20T01:43:16;100788.78;;;2.71;76.78
46394;BME280;32099;53.588;10.176;2022-11-20T01:48:11;100781.81;;;2.69;77.21
46394;BME280;32099;53.588;10.176;2022-11-20T01:50:37;100778.00;;;2.71;77.69
46394;BME280;32099;53.588;10.176;2022-11-20T01:53:07;100785.00;;;2.74;77.00
46394;BME280;32099;53.588;10.176;2022-11-20T01:55:39;100784.00;;;2.75;77.18
46394;BME280;32099;53.588;10.176;2022-11-20T01:58:09;100779.31;;;2.77;77.77
46394;BME280;32099;53.588;10.176;2022-11-20T02:00:34;100784.69;;;2.77;76.85
46394;BME280;32099;53.588;10.176;2022-11-20T02:03:01;100771.63;;;2.72;77.69
46394;BME280;32099;53.588;10.176;2022-11-20T02:05:47;100779.47;;;2.75;77.40
46394;BME280;32099;53.588;10.176;2022-11-20T02:08:25;100782.00;;;2.77;78.13
46394;BME280;32099;53.588;10.176;2022-11-20T02:10:50;100775.31;;;2.71;77.26
46394;BME280;32099;53.588;10.176;2022-11-20T02:13:15;100765.66;;;2.69;78.08
46394;BME280;32099;53.588;10.176;2022-11-20T02:16:00;100767.97;;;2.73;78.19
46394;BME280;32099;53.588;10.176;2022-11-20T02:18:26;100771.53;;;2.74;78.15
46394;BME280;32099;53.588;10.176;2022-11-20T02:20:53;100765.28;;;2.73;77.71
46394;BME280;32099;53.588;10.176;2022-11-20T02:23:32;100765.00;;;2.76;77.59
46394;BME280;32099;53.588;10.176;2022-11-20T02:26:04;100760.88;;;2.72;78.11
46394;BME280;32099;53.588;10.176;2022-11-20T02:28:32;100766.41;;;2.71;78.33
46394;BME280;32099;53.588;10.176;2022-11-20T02:30:58;100761.53;;;2.65;78.27
46394;BME280;32099;53.588;10.176;2022-11-20T02:33:23;100755.69;;;2.59;78.22
46394;BME280;32099;53.588;10.176;2022-11-20T02:35:48;100754.97;;;2.57;78.57
46394;BME280;32099;53.588;10.176;2022-11-20T02:38:14;100746.88;;;2.57;78.81
46394;BME280;32099;53.588;10.176;2022-11-20T02:40:39;100751.88;;;2.62;78.07
46394;BME280;32099;53.588;10.176;2022-11-20T02:43:05;100750.63;;;2.66;78.01
46394;BME280;32099;53.588;10.176;2022-11-20T02:45:30;100746.38;;;2.64;78.67
46394;BME280;32099;53.588;10.176;2022-11-20T02:47:56;100747.63;;;2.59;77.88
46394;BME280;32099;53.588;10.176;2022-11-20T02:50:21;100749.31;;;2.60;78.16
46394;BME280;32099;53.588;10.176;2022-11-20T02:52:47;100747.75;;;2.58;78.03
46394;BME280;32099;53.588;10.176;2022-11-20T02:55:12;100747.47;;;2.61;78.22
46394;BME280;32099;53.588;10.176;2022-11-20T02:57:37;100744.91;;;2.59;78.16
46394;BME280;32099;53.588;10.176;2022-11-20T03:00:04;100743.22;;;2.58;78.13
46394;BME280;32099;53.588;10.176;2022-11-20T03:02:31;100731.84;;;2.55;78.36
46394;BME280;32099;53.588;10.176;2022-11-20T03:04:57;100727.59;;;2.52;79.05
46394;BME280;32099;53.588;10.176;2022-11-20T03:07:22;100731.84;;;2.55;78.61
46394;BME280;32099;53.588;10.176;2022-11-20T03:09:48;100740.75;;;2.55;78.47
46394;BME280;32099;53.588;10.176;2022-11-20T03:12:13;100735.38;;;2.55;78.28
46394;BME280;32099;53.588;10.176;2022-11-20T03:14:39;100746.28;;;2.54;78.95
46394;BME280;32099;53.588;10.176;2022-11-20T03:17:04;100737.34;;;2.53;78.72
46394;BME280;32099;53.588;10.176;2022-11-20T03:19:29;100742.38;;;2.58;78.23
46394;BME280;32099;53.588;10.176;2022-11-20T03:21:55;100743.22;;;2.58;78.58
46394;BME280;32099;53.588;10.176;2022-11-20T03:24:20;100741.50;;;2.57;78.59
46394;BME280;32099;53.588;10.176;2022-11-20T03:26:45;100739.53;;;2.59;78.64
46394;BME280;32099;53.588;10.176;2022-11-20T03:29:11;100740.38;;;2.60;78.41
46394;BME280;32099;53.588;10.176;2022-11-20T03:31:37;100742.97;;;2.61;78.20
46394;BME280;32099;53.588;10.176;2022-11-20T03:34:07;100745.50;;;2.63;78.12
46394;BME280;32099;53.588;10.176;2022-11-20T03:36:34;100737.97;;;2.57;78.40
46394;BME280;32099;53.588;10.176;2022-11-20T03:39:02;100732.84;;;2.54;78.42
46394;BME280;32099;53.588;10.176;2022-11-20T03:41:28;100730.72;;;2.57;78.31
46394;BME280;32099;53.588;10.176;2022-11-20T03:43:59;100722.66;;;2.57;78.46
46394;BME280;32099;53.588;10.176;2022-11-20T03:46:26;100731.59;;;2.58;78.96
46394;BME280;32099;53.588;10.176;2022-11-20T03:48:52;100722.78;;;2.56;78.27
46394;BME280;32099;53.588;10.176;2022-11-20T03:51:19;100719.38;;;2.54;78.03
46394;BME280;32099;53.588;10.176;2022-11-20T03:53:54;100716.69;;;2.54;78.37
46394;BME280;32099;53.588;10.176;2022-11-20T03:56:25;100717.13;;;2.59;78.70
46394;BME280;32099;53.588;10.176;2022-11-20T03:58:53;100716.13;;;2.60;78.73
46394;BME280;32099;53.588;10.176;2022-11-20T04:01:21;100722.50;;;2.59;77.90
46394;BME280;32099;53.588;10.176;2022-11-20T04:03:47;100714.56;;;2.57;77.96
46394;BME280;32099;53.588;10.176;2022-11-20T04:06:20;100717.84;;;2.61;78.45
46394;BME280;32099;53.588;10.176;2022-11-20T04:08:47;100715.03;;;2.62;78.25
46394;BME280;32099;53.588;10.176;2022-11-20T04:11:17;100708.22;;;2.58;78.35
46394;BME280;32099;53.588;10.176;2022-11-20T04:13:48;100710.06;;;2.58;78.02
46394;BME280;32099;53.588;10.176;2022-11-20T04:16:16;100714.56;;;2.57;78.40
46394;BME280;32099;53.588;10.176;2022-11-20T04:18:42;100710.16;;;2.56;78.09
46394;BME280;32099;53.588;10.176;2022-11-20T04:21:08;100714.81;;;2.54;78.37
46394;BME280;32099;53.588;10.176;2022-11-20T04:23:33;100709.19;;;2.57;78.60
46394;BME280;32099;53.588;10.176;2022-11-20T04:26:06;100713.72;;;2.57;78.06
46394;BME280;32099;53.588;10.176;2022-11-20T04:28:33;100711.03;;;2.57;78.31
46394;BME280;32099;53.588;10.176;2022-11-20T04:31:02;100712.59;;;2.59;78.52
46394;BME280;32099;53.588;10.176;2022-11-20T04:33:31;100709.91;;;2.59;78.35
46394;BME280;32099;53.588;10.176;2022-11-20T04:36:05;100708.06;;;2.60;78.03
46394;BME280;32099;53.588;10.176;2022-11-20T04:38:32;100704.13;;;2.64;77.98
46394;BME280;32099;53.588;10.176;2022-11-20T04:40:58;100704.84;;;2.66;78.24
46394;BME280;32099;53.588;10.176;2022-11-20T04:43:25;100703.00;;;2.67;78.20
46394;BME280;32099;53.588;10.176;2022-11-20T04:45:51;100703.88;;;2.67;78.27
46394;BME280;32099;53.588;10.176;2022-11-20T04:48:17;100701.44;;;2.64;78.59
46394;BME280;32099;53.588;10.176;2022-11-20T04:50:43;100700.47;;;2.65;78.20
46394;BME280;32099;53.588;10.176;2022-11-20T04:53:08;100695.22;;;2.64;78.37
46394;BME280;32099;53.588;10.176;2022-11-20T04:55:33;100697.28;;;2.60;77.79
46394;BME280;32099;53.588;10.176;2022-11-20T04:57:58;100697.59;;;2.57;78.50
46394;BME280;32099;53.588;10.176;2022-11-20T05:00:24;100695.97;;;2.54;78.03
46394;BME280;32099;53.588;10.176;2022-11-20T05:02:49;100681.84;;;2.52;78.13
46394;BME280;32099;53.588;10.176;2022-11-20T05:05:14;100692.44;;;2.54;78.96
46394;BME280;32099;53.588;10.176;2022-11-20T05:07:40;100686.50;;;2.50;78.91
46394;BME280;32099;53.588;10.176;2022-11-20T05:10:05;100676.69;;;2.49;78.34
46394;BME280;32099;53.588;10.176;2022-11-20T05:12:31;100679.13;;;2.52;78.92
46394;BME280;32099;53.588;10.176;2022-11-20T05:14:56;100674.44;;;2.54;78.22
46394;BME280;32099;53.588;10.176;2022-11-20T05:17:21;100669.34;;;2.51;78.36
46394;BME280;32099;53.588;10.176;2022-11-20T05:19:47;100685.84;;;2.58;78.24
46394;BME280;32099;53.588;10.176;2022-11-20T05:22:12;100678.84;;;2.55;78.20
46394;BME280;32099;53.588;10.176;2022-11-20T05:24:37;100668.38;;;2.52;78.77
46394;BME280;32099;53.588;10.176;2022-11-20T05:27:02;100674.84;;;2.50;78.81
46394;BME280;32099;53.588;10.176;2022-11-20T05:29:28;100659.69;;;2.49;78.87
46394;BME280;32099;53.588;10.176;2022-11-20T05:31:53;100654.91;;;2.52;78.63
46394;BME280;32099;53.588;10.176;2022-11-20T05:34:18;100654.63;;;2.55;78.72
46394;BME280;32099;53.588;10.176;2022-11-20T05:36:43;100651.66;;;2.58;78.41
46394;BME280;32099;53.588;10.176;2022-11-20T05:39:09;100653.53;;;2.58;78.67
46394;BME280;32099;53.588;10.176;2022-11-20T05:41:34;100643.59;;;2.58;78.41
46394;BME280;32099;53.588;10.176;2022-11-20T05:44:00;100650.69;;;2.59;78.34
46394;BME280;32099;53.588;10.176;2022-11-20T05:46:25;100652.50;;;2.59;78.37
46394;BME280;32099;53.588;10.176;2022-11-20T05:48:50;100653.53;;;2.58;77.84
46394;BME280;32099;53.588;10.176;2022-11-20T05:51:17;100642.13;;;2.54;77.65
46394;BME280;32099;53.588;10.176;2022-11-20T05:53:44;100636.75;;;2.54;78.36
46394;BME280;32099;53.588;10.176;2022-11-20T05:56:10;100648.25;;;2.56;78.51
46394;BME280;32099;53.588;10.176;2022-11-20T05:58:37;100641.16;;;2.55;78.22
46394;BME280;32099;53.588;10.176;2022-11-20T06:01:07;100637.75;;;2.53;78.55
46394;BME280;32099;53.588;10.176;2022-11-20T06:03:36;100640.13;;;2.46;78.67
46394;BME280;32099;53.588;10.176;2022-11-20T06:06:02;100636.84;;;2.43;78.59
46394;BME280;32099;53.588;10.176;2022-11-20T06:08:28;100638.84;;;2.41;78.69
46394;BME280;32099;53.588;10.176;2022-11-20T06:10:54;100653.38;;;2.38;78.38
46394;BME280;32099;53.588;10.176;2022-11-20T06:13:19;100643.50;;;2.39;78.71
46394;BME280;32099;53.588;10.176;2022-11-20T06:15:51;100647.16;;;2.38;79.04
46394;BME280;32099;53.588;10.176;2022-11-20T06:18:17;100647.16;;;2.38;78.59
46394;BME280;32099;53.588;10.176;2022-11-20T06:20:43;100654.84;;;2.42;78.73
46394;BME280;32099;53.588;10.176;2022-11-20T06:23:09;100659.09;;;2.45;79.10
46394;BME280;32099;53.588;10.176;2022-11-20T06:25:37;100650.91;;;2.46;78.41
46394;BME280;32099;53.588;10.176;2022-11-20T06:28:03;100662.50;;;2.47;78.77
46394;BME280;32099;53.588;10.176;2022-11-20T06:30:28;100661.69;;;2.46;78.96
46394;BME280;32099;53.588;10.176;2022-11-20T06:32:54;100653.72;;;2.45;78.86
46394;BME280;32099;53.588;10.176;2022-11-20T06:35:19;100659.25;;;2.43;79.04
46394;BME280;32099;53.588;10.176;2022-11-20T06:37:44;100651.41;;;2.40;78.93
46394;BME280;32099;53.588;10.176;2022-11-20T06:40:10;100645.78;;;2.43;78.90
46394;BME280;32099;53.588;10.176;2022-11-20T06:42:35;100649.47;;;2.42;78.83
46394;BME280;32099;53.588;10.176;2022-11-20T06:45:01;100647.03;;;2.39;79.00
46394;BME280;32099;53.588;10.176;2022-11-20T06:47:26;100642.63;;;2.38;79.46
46394;BME280;32099;53.588;10.176;2022-11-20T06:49:51;100644.59;;;2.36;79.43
46394;BME280;32099;53.588;10.176;2022-11-20T06:52:16;100648.00;;;2.38;79.21
46394;BME280;32099;53.588;10.176;2022-11-20T06:54:42;100638.94;;;2.39;78.93
46394;BME280;32099;53.588;10.176;2022-11-20T06:57:07;100636.16;;;2.41;79.20
46394;BME280;32099;53.588;10.176;2022-11-20T06:59:32;100638.69;;;2.42;79.10
46394;BME280;32099;53.588;10.176;2022-11-20T07:01:57;100640.50;;;2.42;78.89
46394;BME280;32099;53.588;10.176;2022-11-20T07:04:23;100637.97;;;2.40;79.06
46394;BME280;32099;53.588;10.176;2022-11-20T07:06:48;100639.81;;;2.40;78.81
46394;BME280;32099;53.588;10.176;2022-11-20T07:09:13;100648.72;;;2.40;78.81
46394;BME280;32099;53.588;10.176;2022-11-20T07:11:39;100647.88;;;2.40;78.86
46394;BME280;32099;53.588;10.176;2022-11-20T07:14:04;100637.72;;;2.43;79.09
46394;BME280;32099;53.588;10.176;2022-11-20T07:16:30;100640.13;;;2.46;78.81
46394;BME280;32099;53.588;10.176;2022-11-20T07:18:55;100640.00;;;2.48;78.75
46394;BME280;32099;53.588;10.176;2022-11-20T07:21:20;100639.00;;;2.49;78.49
46394;BME280;32099;53.588;10.176;2022-11-20T07:23:46;100643.66;;;2.47;78.82
46394;BME280;32099;53.588;10.176;2022-11-20T07:26:12;100652.31;;;2.51;78.65
46394;BME280;32099;53.588;10.176;2022-11-20T07:28:38;100640.44;;;2.53;78.46
46394;BME280;32099;53.588;10.176;2022-11-20T07:31:03;100637.63;;;2.55;78.77
46394;BME280;32099;53.588;10.176;2022-11-20T07:33:29;100636.75;;;2.54;78.13
46394;BME280;32099;53.588;10.176;2022-11-20T07:35:55;100645.81;;;2.53;78.37
46394;BME280;32099;53.588;10.176;2022-11-20T07:38:20;100633.75;;;2.47;78.19
46394;BME280;32099;53.588;10.176;2022-11-20T07:40:46;100642.53;;;2.50;78.58
46394;BME280;32099;53.588;10.176;2022-11-20T07:43:11;100638.88;;;2.51;78.57
46394;BME280;32099;53.588;10.176;2022-11-20T07:45:36;100649.25;;;2.55;78.41
46394;BME280;32099;53.588;10.176;2022-11-20T07:48:02;100642.03;;;2.56;77.84
46394;BME280;32099;53.588;10.176;2022-11-20T07:50:27;100632.09;;;2.56;78.04
46394;BME280;32099;53.588;10.176;2022-11-20T07:52:59;100635.06;;;2.53;78.21
46394;BME280;32099;53.588;10.176;2022-11-20T07:55:25;100640.00;;;2.48;77.93
46394;BME280;32099;53.588;10.176;2022-11-20T07:57:54;100634.47;;;2.50;78.72
46394;BME280;32099;53.588;10.176;2022-11-20T08:00:20;100639.00;;;2.49;78.33
46394;BME280;32099;53.588;10.176;2022-11-20T08:02:46;100637.16;;;2.50;78.20
46394;BME280;32099;53.588;10.176;2022-11-20T08:05:11;100635.03;;;2.43;78.17
46394;BME280;32099;53.588;10.176;2022-11-20T08:07:40;100637.72;;;2.43;78.24
46394;BME280;32099;53.588;10.176;2022-11-20T08:10:07;100625.97;;;2.44;78.45
46394;BME280;32099;53.588;10.176;2022-11-20T08:12:34;100632.75;;;2.49;78.15
46394;BME280;32099;53.588;10.176;2022-11-20T08:15:18;100628.09;;;2.51;77.91
46394;BME280;32099;53.588;10.176;2022-11-20T08:17:44;100625.56;;;2.49;78.37
46394;BME280;32099;53.588;10.176;2022-11-20T08:20:09;100631.25;;;2.56;77.67
46394;BME280;32099;53.588;10.176;2022-11-20T08:22:35;100627.28;;;2.60;77.85
46394;BME280;32099;53.588;10.176;2022-11-20T08:25:00;100634.38;;;2.61;78.19
46394;BME280;32099;53.588;10.176;2022-11-20T08:27:25;100633.97;;;2.66;78.25
46394;BME280;32099;53.588;10.176;2022-11-20T08:29:51;100625.66;;;2.69;78.17
46394;BME280;32099;53.588;10.176;2022-11-20T08:32:16;100634.31;;;2.72;78.18
46394;BME280;32099;53.588;10.176;2022-11-20T08:34:41;100634.44;;;2.71;78.60
46394;BME280;32099;53.588;10.176;2022-11-20T08:37:07;100634.91;;;2.76;78.23
46394;BME280;32099;53.588;10.176;2022-11-20T08:39:32;100639.88;;;2.81;77.69
46394;BME280;32099;53.588;10.176;2022-11-20T08:41:57;100645.69;;;2.76;77.30
46394;BME280;32099;53.588;10.176;2022-11-20T08:44:22;100642.13;;;2.75;78.48
46394;BME280;32099;53.588;10.176;2022-11-20T08:46:48;100642.84;;;2.77;78.20
46394;BME280;32099;53.588;10.176;2022-11-20T08:49:13;100649.06;;;2.78;77.70
46394;BME280;32099;53.588;10.176;2022-11-20T08:51:39;100633.38;;;2.83;78.99
46394;BME280;32099;53.588;10.176;2022-11-20T08:54:05;100638.34;;;2.88;78.04
46394;BME280;32099;53.588;10.176;2022-11-20T08:56:31;100647.88;;;2.92;78.28
46394;BME280;32099;53.588;10.176;2022-11-20T08:58:56;100646.28;;;2.89;77.99
46394;BME280;32099;53.588;10.176;2022-11-20T09:01:24;100642.91;;;2.87;78.12
46394;BME280;32099;53.588;10.176;2022-11-20T09:03:49;100635.19;;;2.83;78.10
46394;BME280;32099;53.588;10.176;2022-11-20T09:06:15;100643.59;;;2.89;78.40
46394;BME280;32099;53.588;10.176;2022-11-20T09:08:40;100644.56;;;2.88;77.50
46394;BME280;32099;53.588;10.176;2022-11-20T09:11:06;100642.28;;;2.84;77.68
46394;BME280;32099;53.588;10.176;2022-11-20T09:13:32;100637.03;;;2.82;78.73
46394;BME280;32099;53.588;10.176;2022-11-20T09:16:08;100641.88;;;2.88;78.37
46394;BME280;32099;53.588;10.176;2022-11-20T09:18:34;100642.19;;;2.95;78.73
46394;BME280;32099;53.588;10.176;2022-11-20T09:21:05;100636.22;;;2.91;78.59
46394;BME280;32099;53.588;10.176;2022-11-20T09:23:35;100631.81;;;2.90;78.52
46394;BME280;32099;53.588;10.176;2022-11-20T09:26:03;100643.31;;;2.92;78.51
46394;BME280;32099;53.588;10.176;2022-11-20T09:28:38;100640.09;;;2.99;78.74
46394;BME280;32099;53.588;10.176;2022-11-20T09:31:07;100642.78;;;2.99;78.79
46394;BME280;32099;53.588;10.176;2022-11-20T09:33:35;100643.06;;;3.05;78.25
46394;BME280;32099;53.588;10.176;2022-11-20T09:36:00;100638.59;;;3.16;78.88
46394;BME280;32099;53.588;10.176;2022-11-20T09:38:26;100643.16;;;3.25;78.90
46394;BME280;32099;53.588;10.176;2022-11-20T09:40:54;100641.03;;;3.29;78.21
46394;BME280;32099;53.588;10.176;2022-11-20T09:46:25;100641.75;;;3.40;78.42
46394;BME280;32099;53.588;10.176;2022-11-20T09:54:22;100643.19;;;3.45;77.52
46394;BME280;32099;53.588;10.176;2022-11-20T09:56:55;100639.34;;;3.47;77.46
46394;BME280;32099;53.588;10.176;2022-11-20T09:59:32;100647.03;;;3.52;77.39
46394;BME280;32099;53.588;10.176;2022-11-20T10:02:03;100638.09;;;3.51;78.11
46394;BME280;32099;53.588;10.176;2022-11-20T10:04:41;100636.81;;;3.46;77.66
46394;BME280;32099;53.588;10.176;2022-11-20T10:07:13;100636.34;;;3.40;77.77
46394;BME280;32099;53.588;10.176;2022-11-20T10:09:49;100648.84;;;3.42;78.49
46394;BME280;32099;53.588;10.176;2022-11-20T10:23:52;100626.88;;;3.46;77.89
46394;BME280;32099;53.588;10.176;2022-11-20T10:29:06;100630.97;;;3.40;77.92
46394;BME280;32099;53.588;10.176;2022-11-20T10:31:38;100631.16;;;3.49;77.40
46394;BME280;32099;53.588;10.176;2022-11-20T10:36:47;100632.00;;;3.49;77.10
46394;BME280;32099;53.588;10.176;2022-11-20T10:39:19;100636.09;;;3.44;76.88
46394;BME280;32099;53.588;10.176;2022-11-20T10:41:53;100628.69;;;3.36;77.31
46394;BME280;32099;53.588;10.176;2022-11-20T10:44:20;100628.44;;;3.39;78.15
46394;BME280;32099;53.588;10.176;2022-11-20T10:47:12;100632.13;;;3.48;77.22
46394;BME280;32099;53.588;10.176;2022-11-20T10:49:40;100625.06;;;3.57;77.17
46394;BME280;32099;53.588;10.176;2022-11-20T10:55:23;100630.03;;;3.61;76.38
46394;BME280;32099;53.588;10.176;2022-11-20T11:00:32;100633.84;;;3.59;76.78
46394;BME280;32099;53.588;10.176;2022-11-20T11:02:57;100624.47;;;3.63;76.75
46394;BME280;32099;53.588;10.176;2022-11-20T11:05:36;100621.09;;;3.70;77.01
46394;BME280;32099;53.588;10.176;2022-11-20T11:08:11;100623.34;;;3.75;76.53
46394;BME280;32099;53.588;10.176;2022-11-20T11:10:53;100615.00;;;3.78;76.58
46394;BME280;32099;53.588;10.176;2022-11-20T11:13:22;100611.31;;;3.79;76.06
46394;BME280;32099;53.588;10.176;2022-11-20T11:15:48;100607.44;;;3.72;76.20
46394;BME280;32099;53.588;10.176;2022-11-20T11:18:22;100594.25;;;3.69;76.01
46394;BME280;32099;53.588;10.176;2022-11-20T11:20:52;100593.69;;;3.65;76.23
46394;BME280;32099;53.588;10.176;2022-11-20T11:23:26;100587.44;;;3.65;75.86
46394;BME280;32099;53.588;10.176;2022-11-20T11:25:57;100591.69;;;3.67;75.84
46394;BME280;32099;53.588;10.176;2022-11-20T11:28:24;100598.63;;;3.70;76.22
46394;BME280;32099;53.588;10.176;2022-11-20T11:30:52;100601.34;;;3.80;76.26
46394;BME280;32099;53.588;10.176;2022-11-20T11:33:19;100597.22;;;3.85;75.64
46394;BME280;32099;53.588;10.176;2022-11-20T11:35:47;100592.94;;;3.93;75.10
46394;BME280;32099;53.588;10.176;2022-11-20T11:41:06;100599.22;;;3.83;74.91
46394;BME280;32099;53.588;10.176;2022-11-20T11:43:35;100585.44;;;3.77;74.97
46394;BME280;32099;53.588;10.176;2022-11-20T11:46:28;100580.47;;;3.72;74.75
46394;BME280;32099;53.588;10.176;2022-11-20T11:48:56;100588.28;;;3.75;74.72
46394;BME280;32099;53.588;10.176;2022-11-20T11:51:25;100579.06;;;3.78;74.59
46394;BME280;32099;53.588;10.176;2022-11-20T11:53:54;100582.03;;;3.75;73.90
46394;BME280;32099;53.588;10.176;2022-11-20T11:56:21;100584.16;;;3.71;75.49
46394;BME280;32099;53.588;10.176;2022-11-20T11:58:48;100593.25;;;3.70;74.75
46394;BME280;32099;53.588;10.176;2022-11-20T12:07:10;100589.28;;;3.64;75.94
46394;BME280;32099;53.588;10.176;2022-11-20T12:09:46;100588.72;;;3.70;75.79
46394;BME280;32099;53.588;10.176;2022-11-20T12:12:36;100593.69;;;3.75;74.89
46394;BME280;32099;53.588;10.176;2022-11-20T12:15:09;100592.13;;;3.82;74.36
46394;BME280;32099;53.588;10.176;2022-11-20T12:17:37;100596.22;;;3.77;73.91
46394;BME280;32099;53.588;10.176;2022-11-20T12:20:05;100586.31;;;3.77;72.84
46394;BME280;32099;53.588;10.176;2022-11-20T12:25:19;100594.81;;;3.82;74.15
46394;BME280;32099;53.588;10.176;2022-11-20T12:27:59;100587.59;;;3.83;74.20
46394;BME280;32099;53.588;10.176;2022-11-20T12:30:33;100578.19;;;3.87;74.21
46394;BME280;32099;53.588;10.176;2022-11-20T12:33:18;100581.16;;;3.94;74.47
46394;BME280;32099;53.588;10.176;2022-11-20T12:35:59;100582.31;;;3.91;72.70
46394;BME280;32099;53.588;10.176;2022-11-20T12:41:39;100573.09;;;3.74;73.81
46394;BME280;32099;53.588;10.176;2022-11-20T12:44:44;100562.03;;;3.77;74.15
46394;BME280;32099;53.588;10.176;2022-11-20T12:47:49;100567.00;;;3.82;74.67
46394;BME280;32099;53.588;10.176;2022-11-20T12:53:05;100556.06;;;3.83;74.31
46394;BME280;32099;53.588;10.176;2022-11-20T13:00:53;100542.13;;;4.08;75.00
46394;BME280;32099;53.588;10.176;2022-11-20T13:08:31;100545.84;;;4.35;74.60
46394;BME280;32099;53.588;10.176;2022-11-20T13:11:01;100549.69;;;4.42;73.83
46394;BME280;32099;53.588;10.176;2022-11-20T13:14:04;100551.34;;;4.53;72.51
46394;BME280;32099;53.588;10.176;2022-11-20T13:16:49;100542.66;;;4.59;72.32
46394;BME280;32099;53.588;10.176;2022-11-20T13:19:28;100543.19;;;4.62;72.07
46394;BME280;32099;53.588;10.176;2022-11-20T13:21:54;100532.50;;;4.71;71.90
46394;BME280;32099;53.588;10.176;2022-11-20T13:26:46;100528.69;;;4.63;70.67
46394;BME280;32099;53.588;10.176;2022-11-20T13:29:12;100530.53;;;4.63;71.73
46394;BME280;32099;53.588;10.176;2022-11-20T13:31:43;100537.63;;;4.64;71.68
46394;BME280;32099;53.588;10.176;2022-11-20T13:34:12;100531.25;;;4.65;71.77
46394;BME280;32099;53.588;10.176;2022-11-20T13:36:49;100527.13;;;4.61;70.02
46394;BME280;32099;53.588;10.176;2022-11-20T13:39:32;100523.34;;;4.54;71.11
46394;BME280;32099;53.588;10.176;2022-11-20T13:42:00;100527.47;;;4.48;72.50
46394;BME280;32099;53.588;10.176;2022-11-20T13:44:38;100533.16;;;4.45;72.86
46394;BME280;32099;53.588;10.176;2022-11-20T13:47:22;100524.94;;;4.46;72.39
46394;BME280;32099;53.588;10.176;2022-11-20T13:49:49;100524.94;;;4.46;73.32
46394;BME280;32099;53.588;10.176;2022-11-20T13:55:18;100529.09;;;4.41;72.64
46394;BME280;32099;53.588;10.176;2022-11-20T14:03:40;100509.75;;;4.36;72.87
46394;BME280;32099;53.588;10.176;2022-11-20T14:06:11;100512.47;;;4.36;72.74
46394;BME280;32099;53.588;10.176;2022-11-20T14:08:40;100511.91;;;4.32;73.49
46394;BME280;32099;53.588;10.176;2022-11-20T14:11:13;100503.97;;;4.30;72.62